createdAt,value
2019-04-20T00:01:47.967Z,103154.89
2019-04-20T00:04:23.439Z,103160.53
2019-04-20T00:06:53.954Z,103159.16
2019-04-20T00:09:28.654Z,103159.59
2019-04-20T00:12:06.260Z,103156.86
2019-04-20T00:14:29.616Z,103156.33
2019-04-20T00:16:58.824Z,103152.78
2019-04-20T00:19:37.267Z,103142.42
2019-04-20T00:22:13.251Z,103153.46
2019-04-20T00:25:10.059Z,103149.87
2019-04-20T00:28:12.985Z,103148.37
2019-04-20T00:30:46.832Z,103154.77
2019-04-20T00:33:07.309Z,103157.17
2019-04-20T00:35:31.366Z,103161.48
2019-04-20T00:38:01.633Z,103152.13
2019-04-20T00:40:32.644Z,103144.42
2019-04-20T00:43:03.138Z,103150.55
2019-04-20T00:45:36.613Z,103149.09
2019-04-20T00:48:19.767Z,103150.72
2019-04-20T00:50:55.539Z,103154.09
2019-04-20T00:53:21.767Z,103159.28
2019-04-20T00:55:44.338Z,103156.08
2019-04-20T00:58:20.069Z,103160.77
2019-04-20T01:01:07.273Z,103161.94
2019-04-20T01:03:34.004Z,103163.98
2019-04-20T01:06:42.426Z,103154.65
2019-04-20T01:09:22.348Z,103158.52
2019-04-20T01:11:52.884Z,103159.31
2019-04-20T01:14:31.154Z,103160.85
2019-04-20T01:17:01.800Z,103156.39
2019-04-20T01:19:26.877Z,103158.02
2019-04-20T01:22:02.350Z,103158.81
2019-04-20T01:24:34.895Z,103161.35
2019-04-20T01:27:04.131Z,103165.17
2019-04-20T01:29:43.889Z,103155.30
2019-04-20T01:32:15.013Z,103167.66
2019-04-20T01:34:47.178Z,103164.20
2019-04-20T01:37:21.217Z,103167.28
2019-04-20T01:39:48.285Z,103161.50
2019-04-20T01:42:13.119Z,103167.98
2019-04-20T01:44:47.313Z,103168.30
2019-04-20T01:47:15.474Z,103172.17
2019-04-20T01:49:48.629Z,103166.89
2019-04-20T01:52:27.905Z,103173.31
2019-04-20T01:55:23.040Z,103173.19
2019-04-20T01:58:00.406Z,103172.67
2019-04-20T02:00:46.043Z,103169.52
2019-04-20T02:03:46.395Z,103170.77
2019-04-20T02:06:19.734Z,103165.73
2019-04-20T02:08:52.777Z,103163.38
2019-04-20T02:11:26.020Z,103171.26
2019-04-20T02:13:56.576Z,103167.75
2019-04-20T02:16:32.918Z,103170.38
2019-04-20T02:19:12.040Z,103170.31
2019-04-20T02:21:45.005Z,103168.47
2019-04-20T02:24:02.654Z,103173.67
2019-04-20T02:26:32.253Z,103167.46
2019-04-20T02:29:24.656Z,103169.14
2019-04-20T02:32:17.897Z,103160.34
2019-04-20T02:35:01.621Z,103159.39
2019-04-20T02:37:58.413Z,103154.94
2019-04-20T02:40:31.003Z,103159.17
2019-04-20T02:42:59.799Z,103157.86
2019-04-20T02:45:33.368Z,103156.55
2019-04-20T02:48:01.503Z,103156.05
2019-04-20T02:50:30.776Z,103157.34
2019-04-20T02:53:05.247Z,103154.19
2019-04-20T02:55:48.199Z,103155.34
2019-04-20T02:58:00.520Z,103161.35
2019-04-20T03:00:54.704Z,103155.51
2019-04-20T03:03:01.297Z,103158.50
2019-04-20T03:05:30.827Z,103162.20
2019-04-20T03:08:08.939Z,103159.48
2019-04-20T03:10:46.434Z,103156.73
2019-04-20T03:13:14.165Z,103154.00
2019-04-20T03:15:49.761Z,103150.79
2019-04-20T03:18:21.019Z,103156.39
2019-04-20T03:20:53.681Z,103160.17
2019-04-20T03:23:29.700Z,103158.69
2019-04-20T03:26:19.325Z,103160.86
2019-04-20T03:29:05.565Z,103155.01
2019-04-20T03:36:59.378Z,103159.68
2019-04-20T03:39:30.160Z,103160.00
2019-04-20T03:41:46.947Z,103153.13
2019-04-20T03:44:19.193Z,103159.63
2019-04-20T03:46:51.972Z,103159.45
2019-04-20T03:49:43.678Z,103160.55
2019-04-20T03:52:24.554Z,103150.66
2019-04-20T03:55:23.459Z,103151.23
2019-04-20T03:57:57.488Z,103152.25
2019-04-20T04:00:45.735Z,103155.33
2019-04-20T04:06:09.537Z,103144.53
2019-04-20T04:08:38.042Z,103157.38
2019-04-20T04:11:21.046Z,103154.92
2019-04-20T04:13:35.550Z,103161.28
2019-04-20T04:16:10.401Z,103154.85
2019-04-20T04:18:43.728Z,103159.44
2019-04-20T04:21:18.286Z,103159.13
2019-04-20T04:23:59.024Z,103163.67
2019-04-20T04:26:31.112Z,103164.71
2019-04-20T04:29:08.192Z,103162.74
2019-04-20T04:31:36.209Z,103165.09
2019-04-20T04:34:10.856Z,103174.89
2019-04-20T04:36:43.233Z,103178.13
2019-04-20T04:39:19.224Z,103182.73
2019-04-20T04:41:59.923Z,103183.50
2019-04-20T04:44:15.257Z,103183.84
2019-04-20T04:46:33.903Z,103183.80
2019-04-20T04:51:55.501Z,103186.05
2019-04-20T04:54:28.931Z,103187.08
2019-04-20T04:56:50.482Z,103185.48
2019-04-20T04:59:21.377Z,103183.63
2019-04-20T05:01:54.873Z,103188.95
2019-04-20T05:05:05.614Z,103186.80
2019-04-20T05:07:38.849Z,103186.80
2019-04-20T05:09:59.151Z,103188.10
2019-04-20T05:12:33.041Z,103197.81
2019-04-20T05:15:10.144Z,103193.00
2019-04-20T05:17:57.475Z,103197.94
2019-04-20T05:20:24.233Z,103200.70
2019-04-20T05:23:15.353Z,103200.02
2019-04-20T05:26:07.385Z,103206.89
2019-04-20T05:28:27.867Z,103207.70
2019-04-20T05:30:52.491Z,103207.67
2019-04-20T05:33:28.084Z,103208.63
2019-04-20T05:36:16.355Z,103211.62
2019-04-20T05:38:50.521Z,103219.95
2019-04-20T05:41:11.708Z,103217.78
2019-04-20T05:43:54.761Z,103213.59
2019-04-20T05:46:32.040Z,103218.00
2019-04-20T05:49:11.794Z,103213.30
2019-04-20T05:54:09.790Z,103211.33
2019-04-20T05:56:56.248Z,103214.86
2019-04-20T05:59:11.161Z,103211.41
2019-04-20T06:01:55.862Z,103215.42
2019-04-20T06:04:28.722Z,103218.17
2019-04-20T06:06:56.731Z,103224.73
2019-04-20T06:09:28.490Z,103220.81
2019-04-20T06:12:07.621Z,103223.92
2019-04-20T06:14:48.276Z,103233.59
2019-04-20T06:17:44.460Z,103234.47
2019-04-20T06:20:21.543Z,103233.19
2019-04-20T06:22:51.311Z,103225.34
2019-04-20T06:28:01.062Z,103236.78
2019-04-20T06:30:25.246Z,103235.92
2019-04-20T06:34:12.959Z,103228.38
2019-04-20T06:36:32.152Z,103232.78
2019-04-20T06:41:51.871Z,103232.67
2019-04-20T06:44:16.417Z,103239.64
2019-04-20T06:46:50.558Z,103235.11
2019-04-20T06:49:16.926Z,103232.78
2019-04-20T06:52:01.692Z,103231.32
2019-04-20T06:54:38.437Z,103232.97
2019-04-20T06:57:10.266Z,103230.56
2019-04-20T07:02:21.899Z,103221.98
2019-04-20T07:05:07.964Z,103231.09
2019-04-20T07:10:02.246Z,103223.70
2019-04-20T07:12:22.862Z,103223.11
2019-04-20T07:14:47.015Z,103223.36
2019-04-20T07:20:09.886Z,103231.80
2019-04-20T07:22:55.629Z,103236.47
2019-04-20T07:25:24.514Z,103234.94
2019-04-20T07:27:54.024Z,103236.03
2019-04-20T07:30:24.139Z,103232.23
2019-04-20T07:32:59.717Z,103239.49
2019-04-20T07:35:30.763Z,103239.70
2019-04-20T07:40:37.472Z,103235.68
2019-04-20T07:43:04.688Z,103235.45
2019-04-20T07:45:41.352Z,103240.09
2019-04-20T07:50:37.448Z,103244.47
2019-04-20T07:53:14.669Z,103245.64
2019-04-20T07:55:55.127Z,103242.77
2019-04-20T07:58:12.174Z,103248.23
2019-04-20T08:01:05.735Z,103243.59
2019-04-20T08:03:45.891Z,103238.98
2019-04-20T08:06:18.084Z,103239.98
2019-04-20T08:08:57.261Z,103242.80
2019-04-20T08:11:36.613Z,103242.44
2019-04-20T08:14:12.912Z,103246.55
2019-04-20T08:16:47.064Z,103247.50
2019-04-20T08:19:27.318Z,103248.02
2019-04-20T08:21:58.696Z,103244.59
2019-04-20T08:24:31.729Z,103237.64
2019-04-20T08:26:55.021Z,103237.70
2019-04-20T08:29:38.149Z,103239.59
2019-04-20T08:32:27.093Z,103240.11
2019-04-20T08:34:59.092Z,103236.22
2019-04-20T08:37:25.748Z,103230.94
2019-04-20T08:40:07.687Z,103235.89
2019-04-20T08:42:40.429Z,103230.63
2019-04-20T08:45:10.606Z,103234.66
2019-04-20T08:47:46.859Z,103240.46
2019-04-20T08:50:26.940Z,103237.80
2019-04-20T08:55:19.351Z,103232.95
2019-04-20T08:57:33.633Z,103231.14
2019-04-20T09:00:11.049Z,103231.13
2019-04-20T09:02:51.099Z,103227.52
2019-04-20T09:05:30.423Z,103220.80
2019-04-20T09:07:57.509Z,103223.00
2019-04-20T09:10:39.211Z,103220.27
2019-04-20T09:13:04.922Z,103213.99
2019-04-20T09:15:23.367Z,103211.27
2019-04-20T09:18:15.157Z,103211.62
2019-04-20T09:20:44.682Z,103209.32
2019-04-20T09:23:28.665Z,103210.59
2019-04-20T09:28:30.873Z,103204.67
2019-04-20T09:31:15.704Z,103198.82
2019-04-20T09:34:20.273Z,103198.31
2019-04-20T09:37:24.712Z,103208.36
2019-04-20T09:40:03.400Z,103215.77
2019-04-20T09:42:27.214Z,103207.17
2019-04-20T09:45:00.897Z,103206.55
2019-04-20T09:47:36.822Z,103198.39
2019-04-20T09:50:21.431Z,103196.47
2019-04-20T09:52:51.651Z,103195.00
2019-04-20T09:55:18.174Z,103201.16
2019-04-20T09:57:57.607Z,103203.75
2019-04-20T10:00:30.895Z,103192.06
2019-04-20T10:02:44.676Z,103192.36
2019-04-20T10:05:15.649Z,103192.20
2019-04-20T10:07:48.440Z,103196.06
2019-04-20T10:10:29.681Z,103188.28
2019-04-20T10:12:50.125Z,103182.28
2019-04-20T10:15:23.488Z,103186.16
2019-04-20T10:17:52.415Z,103185.97
2019-04-20T10:20:29.672Z,103176.84
2019-04-20T10:22:54.673Z,103179.35
2019-04-20T10:25:24.936Z,103172.94
2019-04-20T10:27:55.778Z,103171.87
2019-04-20T10:30:26.353Z,103163.11
2019-04-20T10:32:57.437Z,103166.92
2019-04-20T10:35:28.037Z,103168.23
2019-04-20T10:38:03.329Z,103167.19
2019-04-20T10:40:46.387Z,103169.80
2019-04-20T10:43:06.201Z,103177.84
2019-04-20T10:45:36.968Z,103170.36
2019-04-20T10:48:07.313Z,103166.10
2019-04-20T10:50:38.871Z,103169.92
2019-04-20T10:53:09.991Z,103167.84
2019-04-20T10:55:40.359Z,103170.34
2019-04-20T10:58:11.453Z,103165.27
2019-04-20T11:00:44.235Z,103173.92
2019-04-20T11:03:15.898Z,103175.44
2019-04-20T11:05:46.978Z,103174.89
2019-04-20T11:08:17.357Z,103170.19
2019-04-20T11:10:59.277Z,103164.66
2019-04-20T11:13:19.651Z,103175.08
2019-04-20T11:15:50.534Z,103172.08
2019-04-20T11:18:21.770Z,103172.83
2019-04-20T11:20:53.263Z,103164.64
2019-04-20T11:23:24.464Z,103160.44
2019-04-20T11:25:56.007Z,103160.55
2019-04-20T11:28:26.462Z,103156.39
2019-04-20T11:30:56.745Z,103150.88
2019-04-20T11:33:27.821Z,103153.97
2019-04-20T11:35:59.111Z,103155.18
2019-04-20T11:38:30.237Z,103147.34
2019-04-20T11:41:10.610Z,103147.32
2019-04-20T11:43:33.609Z,103139.55
2019-04-20T11:46:04.807Z,103147.72
2019-04-20T11:48:35.407Z,103145.45
2019-04-20T11:51:05.910Z,103135.23
2019-04-20T11:53:36.425Z,103129.55
2019-04-20T11:56:14.461Z,103121.73
2019-04-20T11:58:38.907Z,103126.20
2019-04-20T12:01:34.745Z,103125.01
2019-04-20T12:04:11.330Z,103117.95
2019-04-20T12:06:31.158Z,103115.55
2019-04-20T12:09:03.162Z,103117.61
2019-04-20T12:11:45.430Z,103119.98
2019-04-20T12:14:06.850Z,103108.24
2019-04-20T12:16:37.566Z,103110.22
2019-04-20T12:19:08.595Z,103100.45
2019-04-20T12:21:39.190Z,103104.78
2019-04-20T12:24:10.095Z,103101.67
2019-04-20T12:26:40.659Z,103097.78
2019-04-20T12:29:11.959Z,103099.33
2019-04-20T12:31:44.376Z,103093.73
2019-04-20T12:34:14.275Z,103093.39
2019-04-20T12:36:44.853Z,103099.52
2019-04-20T12:39:15.398Z,103098.72
2019-04-20T12:41:52.961Z,103090.45
2019-04-20T12:44:19.604Z,103090.34
2019-04-20T12:46:49.997Z,103086.55
2019-04-20T12:49:20.399Z,103086.77
2019-04-20T12:51:57.370Z,103081.27
2019-04-20T12:54:22.880Z,103086.05
2019-04-20T12:56:53.160Z,103083.13
2019-04-20T12:59:23.575Z,103072.33
2019-04-20T13:01:55.103Z,103077.27
2019-04-20T13:04:26.801Z,103073.94
2019-04-20T13:06:59.609Z,103075.32
2019-04-20T13:09:34.614Z,103073.73
2019-04-20T13:12:23.584Z,103066.41
2019-04-20T13:15:29.947Z,103063.94
2019-04-20T13:18:01.347Z,103064.90
2019-04-20T13:20:32.114Z,103063.97
2019-04-20T13:23:03.927Z,103065.11
2019-04-20T13:25:34.972Z,103057.86
2019-04-20T13:28:05.460Z,103062.07
2019-04-20T13:30:35.770Z,103052.71
2019-04-20T13:33:07.973Z,103051.69
2019-04-20T13:35:38.466Z,103051.97
2019-04-20T13:38:10.016Z,103049.45
2019-04-20T13:40:41.806Z,103045.25
2019-04-20T13:43:12.571Z,103051.23
2019-04-20T13:45:47.039Z,103044.25
2019-04-20T13:48:17.334Z,103045.71
2019-04-20T13:50:47.592Z,103043.21
2019-04-20T13:53:17.946Z,103037.60
2019-04-20T13:55:51.979Z,103037.59
2019-04-20T13:58:40.152Z,103025.61
2019-04-20T14:01:28.733Z,103026.59
2019-04-20T14:04:16.964Z,103016.06
2019-04-20T14:06:48.619Z,103018.29
2019-04-20T14:09:19.450Z,103022.23
2019-04-20T14:11:50.027Z,103025.36
2019-04-20T14:14:21.328Z,103018.98
2019-04-20T14:16:52.949Z,103020.18
2019-04-20T14:19:25.150Z,103025.19
2019-04-20T14:21:56.444Z,103019.12
2019-04-20T14:24:26.868Z,103019.89
2019-04-20T14:26:57.283Z,103022.06
2019-04-20T14:29:28.366Z,103015.80
2019-04-20T14:32:01.522Z,103012.23
2019-04-20T14:34:31.155Z,103000.61
2019-04-20T14:37:02.589Z,103004.57
2019-04-20T14:39:34.228Z,103005.86
2019-04-20T14:42:04.691Z,103007.67
2019-04-20T14:44:34.886Z,102997.06
2019-04-20T14:47:05.595Z,103000.48
2019-04-20T14:49:36.799Z,102993.82
2019-04-20T14:52:08.244Z,102995.31
2019-04-20T14:54:39.415Z,103000.27
2019-04-20T14:57:09.775Z,102992.95
2019-04-20T14:59:47.479Z,102996.34
2019-04-20T15:02:21.513Z,102987.04
2019-04-20T15:04:52.772Z,102993.11
2019-04-20T15:07:24.594Z,102988.07
2019-04-20T15:09:58.544Z,102989.07
2019-04-20T15:12:38.897Z,102988.22
2019-04-20T15:15:00.875Z,102977.78
2019-04-20T15:17:45.809Z,102985.16
2019-04-20T15:20:30.001Z,102974.23
2019-04-20T15:23:03.393Z,102981.09
2019-04-20T15:25:34.708Z,102978.38
2019-04-20T15:28:06.130Z,102977.44
2019-04-20T15:30:36.615Z,102980.84
2019-04-20T15:33:07.245Z,102977.12
2019-04-20T15:35:37.899Z,102986.28
2019-04-20T15:38:09.100Z,102976.06
2019-04-20T15:40:39.584Z,102983.16
2019-04-20T15:43:14.400Z,102974.66
2019-04-20T15:45:43.329Z,102978.19
2019-04-20T15:48:14.262Z,102977.50
2019-04-20T15:50:45.732Z,102973.69
2019-04-20T15:53:17.464Z,102970.57
2019-04-20T15:55:50.464Z,102969.81
2019-04-20T15:58:20.778Z,102967.11
2019-04-20T16:00:52.636Z,102969.39
2019-04-20T16:03:27.529Z,102967.67
2019-04-20T16:06:01.255Z,102967.20
2019-04-20T16:08:34.593Z,102964.97
2019-04-20T16:11:05.230Z,102966.34
2019-04-20T16:13:39.630Z,102956.36
2019-04-20T16:16:08.063Z,102958.04
2019-04-20T16:18:39.122Z,102961.38
2019-04-20T16:21:14.348Z,102961.67
2019-04-20T16:23:50.578Z,102962.72
2019-04-20T16:26:44.138Z,102956.74
2019-04-20T16:29:15.411Z,102961.33
2019-04-20T16:31:48.421Z,102961.77
2019-04-20T16:34:19.153Z,102955.69
2019-04-20T16:36:52.712Z,102956.77
2019-04-20T16:39:22.627Z,102951.63
2019-04-20T16:41:53.944Z,102949.31
2019-04-20T16:44:25.144Z,102945.16
2019-04-20T16:46:56.298Z,102952.25
2019-04-20T16:49:26.547Z,102946.56
2019-04-20T16:51:57.125Z,102946.07
2019-04-20T16:54:27.954Z,102938.14
2019-04-20T16:56:58.474Z,102946.58
2019-04-20T16:59:33.628Z,102931.48
2019-04-20T17:02:00.745Z,102934.27
2019-04-20T17:04:33.402Z,102944.39
2019-04-20T17:07:20.808Z,102940.76
2019-04-20T17:09:51.839Z,102930.38
2019-04-20T17:12:23.755Z,102932.91
2019-04-20T17:14:55.537Z,102932.62
2019-04-20T17:17:27.359Z,102933.68
2019-04-20T17:19:57.823Z,102921.53
2019-04-20T17:22:29.416Z,102924.05
2019-04-20T17:25:00.074Z,102927.66
2019-04-20T17:27:49.138Z,102931.49
2019-04-20T17:30:59.262Z,102925.37
2019-04-20T17:33:55.223Z,102928.86
2019-04-20T17:36:19.751Z,102926.03
2019-04-20T17:38:52.513Z,102929.17
2019-04-20T17:41:40.119Z,102926.92
2019-04-20T17:44:11.651Z,102926.90
2019-04-20T17:46:38.395Z,102929.47
2019-04-20T17:49:09.286Z,102922.29
2019-04-20T17:51:47.648Z,102934.21
2019-04-20T17:54:16.023Z,102927.11
2019-04-20T17:56:46.748Z,102931.14
2019-04-20T17:59:17.759Z,102938.33
2019-04-20T18:02:17.826Z,102932.61
2019-04-20T18:05:15.950Z,102935.57
2019-04-20T18:07:43.980Z,102937.67
2019-04-20T18:10:11.464Z,102928.20
2019-04-20T18:12:32.775Z,102936.24
2019-04-20T18:15:12.175Z,102933.44
2019-04-20T18:18:25.629Z,102941.27
2019-04-20T18:21:03.162Z,102935.59
2019-04-20T18:23:39.413Z,102935.88
2019-04-20T18:26:27.585Z,102938.00
2019-04-20T18:29:03.033Z,102928.81
2019-04-20T18:34:17.713Z,102929.77
2019-04-20T18:36:47.256Z,102925.14
2019-04-20T18:39:18.447Z,102933.17
2019-04-20T18:41:53.615Z,102936.64
2019-04-20T18:44:27.682Z,102932.02
2019-04-20T18:47:30.236Z,102933.14
2019-04-20T18:49:38.633Z,102941.77
2019-04-20T18:51:58.052Z,102935.18
2019-04-20T18:54:32.917Z,102935.28
2019-04-20T18:57:01.670Z,102934.87
2019-04-20T18:59:40.583Z,102933.58
2019-04-20T19:02:16.214Z,102933.16
2019-04-20T19:04:45.794Z,102937.12
2019-04-20T19:07:23.647Z,102935.33
2019-04-20T19:10:13.478Z,102935.28
2019-04-20T19:12:44.993Z,102936.99
2019-04-20T19:15:47.752Z,102933.83
2019-04-20T19:18:57.427Z,102932.86
2019-04-20T19:21:12.991Z,102936.29
2019-04-20T19:23:53.318Z,102932.31
2019-04-20T19:26:21.130Z,102936.18
2019-04-20T19:28:55.746Z,102935.14
2019-04-20T19:31:41.329Z,102936.81
2019-04-20T19:34:16.670Z,102931.80
2019-04-20T19:36:36.839Z,102937.47
2019-04-20T19:39:19.431Z,102936.91
2019-04-20T19:41:42.859Z,102931.03
2019-04-20T19:44:20.431Z,102941.56
2019-04-20T19:47:10.544Z,102939.23
2019-04-20T19:49:25.663Z,102943.05
2019-04-20T19:52:20.469Z,102946.88
2019-04-20T19:54:42.551Z,102942.75
2019-04-20T19:57:04.985Z,102944.21
2019-04-20T19:59:34.301Z,102939.52
2019-04-20T20:02:01.241Z,102939.73
2019-04-20T20:04:42.456Z,102942.19
2019-04-20T20:07:16.478Z,102940.26
2019-04-20T20:09:48.943Z,102939.62
2019-04-20T20:12:14.725Z,102932.77
2019-04-20T20:14:46.594Z,102944.55
2019-04-20T20:17:42.159Z,102936.45
2019-04-20T20:20:14.719Z,102950.38
2019-04-20T20:22:32.387Z,102939.66
2019-04-20T20:24:54.915Z,102943.46
2019-04-20T20:27:33.982Z,102944.58
2019-04-20T20:30:05.611Z,102939.09
2019-04-20T20:32:50.327Z,102938.05
2019-04-20T20:35:09.984Z,102940.03
2019-04-20T20:37:44.848Z,102930.18
2019-04-20T20:40:19.532Z,102928.23
2019-04-20T20:42:52.998Z,102928.02
2019-04-20T20:45:22.950Z,102926.04
2019-04-20T20:48:03.870Z,102928.97
2019-04-20T20:50:44.438Z,102927.50
2019-04-20T20:53:06.403Z,102930.39
2019-04-20T20:55:32.176Z,102931.52
2019-04-20T20:58:10.308Z,102928.23
2019-04-20T21:00:45.697Z,102921.49
2019-04-20T21:03:14.570Z,102917.78
2019-04-20T21:05:43.530Z,102912.28
2019-04-20T21:08:19.717Z,102920.38
2019-04-20T21:10:54.723Z,102920.98
2019-04-20T21:13:35.537Z,102918.56
2019-04-20T21:16:11.930Z,102919.70
2019-04-20T21:18:58.636Z,102924.77
2019-04-20T21:21:21.850Z,102925.95
2019-04-20T21:23:50.819Z,102926.72
2019-04-20T21:26:21.711Z,102927.04
2019-04-20T21:28:48.010Z,102920.31
2019-04-20T21:31:23.660Z,102916.30
2019-04-20T21:33:51.135Z,102920.06
2019-04-20T21:36:26.235Z,102923.83
2019-04-20T21:38:54.159Z,102926.20
2019-04-20T21:41:27.848Z,102926.41
2019-04-20T21:43:58.499Z,102924.02
2019-04-20T21:46:38.923Z,102921.13
2019-04-20T21:49:12.833Z,102919.14
2019-04-20T21:51:44.694Z,102915.88
2019-04-20T21:54:07.188Z,102909.30
2019-04-20T21:56:46.132Z,102912.80
2019-04-20T21:59:17.617Z,102902.39
2019-04-20T22:01:53.563Z,102899.50
2019-04-20T22:04:22.458Z,102900.17
2019-04-20T22:07:00.470Z,102903.34
2019-04-20T22:09:38.628Z,102906.78
2019-04-20T22:12:03.444Z,102908.33
2019-04-20T22:14:35.528Z,102906.34
2019-04-20T22:17:07.797Z,102904.38
2019-04-20T22:19:45.774Z,102907.23
2019-04-20T22:22:22.394Z,102907.01
2019-04-20T22:24:57.759Z,102907.52
2019-04-20T22:27:21.130Z,102900.09
2019-04-20T22:29:48.143Z,102907.00
2019-04-20T22:32:21.693Z,102908.92
2019-04-20T22:34:58.791Z,102906.12
2019-04-20T22:37:28.733Z,102908.47
2019-04-20T22:39:58.302Z,102908.69
2019-04-20T22:42:37.661Z,102904.96
2019-04-20T22:45:07.310Z,102898.16
2019-04-20T22:47:37.093Z,102896.33
2019-04-20T22:50:29.024Z,102893.06
2019-04-20T22:55:42.631Z,102883.00
2019-04-20T22:57:59.151Z,102885.23
2019-04-20T23:00:31.130Z,102885.05
2019-04-20T23:02:54.675Z,102884.37
2019-04-20T23:05:26.763Z,102875.42
2019-04-20T23:07:58.891Z,102875.23
2019-04-20T23:10:36.885Z,102865.77
2019-04-20T23:13:03.238Z,102867.41
2019-04-20T23:15:34.304Z,102870.78
2019-04-20T23:18:06.239Z,102865.52
2019-04-20T23:20:40.354Z,102849.03
2019-04-20T23:23:11.115Z,102852.87
2019-04-20T23:25:45.034Z,102855.84
2019-04-20T23:28:18.043Z,102850.47
2019-04-20T23:30:54.295Z,102837.17
2019-04-20T23:33:23.340Z,102835.24
2019-04-20T23:35:57.669Z,102831.93
2019-04-20T23:38:26.447Z,102831.70
2019-04-20T23:40:57.660Z,102831.45
2019-04-20T23:43:35.117Z,102830.76
2019-04-20T23:46:26.011Z,102828.78
2019-04-20T23:49:17.023Z,102830.70
2019-04-20T23:52:03.632Z,102824.34
2019-04-20T23:54:23.015Z,102823.20
2019-04-20T23:56:48.051Z,102822.64
2019-04-20T23:59:24.635Z,102822.04
